sensor_id;sensor_type;location;lat;lon;timestamp;temperature;humidity
18721;DHT22;9489;50.948;3.114;2023-12-29T00:00:34;10.30;99.90
18721;DHT22;9489;50.948;3.114;2023-12-29T00:03:00;10.30;99.90
18721;DHT22;9489;50.948;3.114;2023-12-29T00:05:25;10.30;99.90
18721;DHT22;9489;50.948;3.114;2023-12-29T00:07:53;10.30;99.90
18721;DHT22;9489;50.948;3.114;2023-12-29T00:10:18;10.30;99.90
18721;DHT22;9489;50.948;3.114;2023-12-29T00:12:44;10.30;99.90
18721;DHT22;9489;50.948;3.114;2023-12-29T00:15:10;10.40;99.90
18721;DHT22;9489;50.948;3.114;2023-12-29T00:17:35;10.40;99.90
18721;DHT22;9489;50.948;3.114;2023-12-29T00:20:06;10.40;99.90
18721;DHT22;9489;50.948;3.114;2023-12-29T00:22:33;10.40;99.90
18721;DHT22;9489;50.948;3.114;2023-12-29T00:24:59;10.40;99.90
18721;DHT22;9489;50.948;3.114;2023-12-29T00:27:25;10.40;99.90
18721;DHT22;9489;50.948;3.114;2023-12-29T00:29:51;10.40;99.90
18721;DHT22;9489;50.948;3.114;2023-12-29T00:32:16;10.40;99.90
18721;DHT22;9489;50.948;3.114;2023-12-29T00:34:42;10.40;99.90
18721;DHT22;9489;50.948;3.114;2023-12-29T00:37:08;10.50;99.90
18721;DHT22;9489;50.948;3.114;2023-12-29T00:39:34;10.50;99.90
18721;DHT22;9489;50.948;3.114;2023-12-29T00:42:07;10.50;99.90
18721;DHT22;9489;50.948;3.114;2023-12-29T00:44:33;10.60;99.90
18721;DHT22;9489;50.948;3.114;2023-12-29T00:46:59;10.60;99.90
18721;DHT22;9489;50.948;3.114;2023-12-29T00:49:25;10.60;99.90
18721;DHT22;9489;50.948;3.114;2023-12-29T00:51:51;10.70;99.90
18721;DHT22;9489;50.948;3.114;2023-12-29T00:54:17;10.70;99.90
18721;DHT22;9489;50.948;3.114;2023-12-29T00:56:51;10.60;99.90
18721;DHT22;9489;50.948;3.114;2023-12-29T00:59:18;10.60;99.90
18721;DHT22;9489;50.948;3.114;2023-12-29T01:01:44;10.50;99.90
18721;DHT22;9489;50.948;3.114;2023-12-29T01:04:10;10.50;99.90
18721;DHT22;9489;50.948;3.114;2023-12-29T01:06:35;10.50;99.90
18721;DHT22;9489;50.948;3.114;2023-12-29T01:09:01;10.40;99.90
18721;DHT22;9489;50.948;3.114;2023-12-29T01:11:26;10.40;99.90
18721;DHT22;9489;50.948;3.114;2023-12-29T01:13:52;10.40;99.90
18721;DHT22;9489;50.948;3.114;2023-12-29T01:16:18;10.30;99.90
18721;DHT22;9489;50.948;3.114;2023-12-29T01:18:43;10.30;99.90
18721;DHT22;9489;50.948;3.114;2023-12-29T01:21:09;10.30;99.90
18721;DHT22;9489;50.948;3.114;2023-12-29T01:23:35;10.40;99.90
18721;DHT22;9489;50.948;3.114;2023-12-29T01:26:00;10.40;99.90
18721;DHT22;9489;50.948;3.114;2023-12-29T01:28:26;10.40;99.90
18721;DHT22;9489;50.948;3.114;2023-12-29T01:30:51;10.40;99.90
18721;DHT22;9489;50.948;3.114;2023-12-29T01:33:17;10.40;99.90
18721;DHT22;9489;50.948;3.114;2023-12-29T01:35:43;10.50;99.90
18721;DHT22;9489;50.948;3.114;2023-12-29T01:38:08;10.50;99.90
18721;DHT22;9489;50.948;3.114;2023-12-29T01:40:43;10.50;99.90
18721;DHT22;9489;50.948;3.114;2023-12-29T01:43:09;10.50;99.90
18721;DHT22;9489;50.948;3.114;2023-12-29T01:45:34;10.50;99.90
18721;DHT22;9489;50.948;3.114;2023-12-29T01:48:00;10.50;99.90
18721;DHT22;9489;50.948;3.114;2023-12-29T01:50:26;10.60;99.90
18721;DHT22;9489;50.948;3.114;2023-12-29T01:52:52;10.60;99.90
18721;DHT22;9489;50.948;3.114;2023-12-29T01:55:20;10.60;99.90
18721;DHT22;9489;50.948;3.114;2023-12-29T01:57:50;10.70;99.90
18721;DHT22;9489;50.948;3.114;2023-12-29T02:00:17;10.70;99.90
18721;DHT22;9489;50.948;3.114;2023-12-29T02:02:44;10.80;99.90
18721;DHT22;9489;50.948;3.114;2023-12-29T02:05:15;10.80;99.90
18721;DHT22;9489;50.948;3.114;2023-12-29T02:07:42;10.80;99.90
18721;DHT22;9489;50.948;3.114;2023-12-29T02:10:08;10.90;99.90
18721;DHT22;9489;50.948;3.114;2023-12-29T02:12:35;10.90;99.90
18721;DHT22;9489;50.948;3.114;2023-12-29T02:15:05;10.90;99.90
18721;DHT22;9489;50.948;3.114;2023-12-29T02:17:38;11.00;99.90
18721;DHT22;9489;50.948;3.114;2023-12-29T02:20:05;11.00;99.90
18721;DHT22;9489;50.948;3.114;2023-12-29T02:22:32;11.00;99.90
18721;DHT22;9489;50.948;3.114;2023-12-29T02:24:58;11.10;99.90
18721;DHT22;9489;50.948;3.114;2023-12-29T02:30:36;11.00;99.90
18721;DHT22;9489;50.948;3.114;2023-12-29T02:33:06;11.00;99.90
18721;DHT22;9489;50.948;3.114;2023-12-29T02:35:39;11.00;99.90
18721;DHT22;9489;50.948;3.114;2023-12-29T02:38:05;10.90;99.90
18721;DHT22;9489;50.948;3.114;2023-12-29T02:40:30;10.90;99.90
18721;DHT22;9489;50.948;3.114;2023-12-29T02:42:56;10.90;99.90
18721;DHT22;9489;50.948;3.114;2023-12-29T02:45:22;10.90;99.90
18721;DHT22;9489;50.948;3.114;2023-12-29T02:47:48;10.80;99.90
18721;DHT22;9489;50.948;3.114;2023-12-29T02:50:14;10.80;99.90
18721;DHT22;9489;50.948;3.114;2023-12-29T02:52:40;10.80;99.90
18721;DHT22;9489;50.948;3.114;2023-12-29T02:55:06;10.80;99.90
18721;DHT22;9489;50.948;3.114;2023-12-29T02:57:31;10.90;99.90
18721;DHT22;9489;50.948;3.114;2023-12-29T02:59:57;10.80;99.90
18721;DHT22;9489;50.948;3.114;2023-12-29T03:02:23;10.80;99.90
18721;DHT22;9489;50.948;3.114;2023-12-29T03:04:49;10.80;99.90
18721;DHT22;9489;50.948;3.114;2023-12-29T03:07:15;10.80;99.90
18721;DHT22;9489;50.948;3.114;2023-12-29T03:09:40;10.80;99.90
18721;DHT22;9489;50.948;3.114;2023-12-29T03:12:06;10.80;99.90
18721;DHT22;9489;50.948;3.114;2023-12-29T03:14:32;10.80;99.90
18721;DHT22;9489;50.948;3.114;2023-12-29T03:16:58;10.80;99.90
18721;DHT22;9489;50.948;3.114;2023-12-29T03:19:24;10.80;99.90
18721;DHT22;9489;50.948;3.114;2023-12-29T03:21:50;10.70;99.90
18721;DHT22;9489;50.948;3.114;2023-12-29T03:24:15;10.80;99.90
18721;DHT22;9489;50.948;3.114;2023-12-29T03:26:41;10.80;99.90
18721;DHT22;9489;50.948;3.114;2023-12-29T03:29:07;10.80;99.90
18721;DHT22;9489;50.948;3.114;2023-12-29T03:31:32;10.80;99.90
18721;DHT22;9489;50.948;3.114;2023-12-29T03:33:58;10.80;99.90
18721;DHT22;9489;50.948;3.114;2023-12-29T03:36:23;10.80;99.90
18721;DHT22;9489;50.948;3.114;2023-12-29T03:38:49;10.80;99.90
18721;DHT22;9489;50.948;3.114;2023-12-29T03:41:15;10.80;99.90
18721;DHT22;9489;50.948;3.114;2023-12-29T03:43:40;10.90;99.90
18721;DHT22;9489;50.948;3.114;2023-12-29T03:46:21;10.90;99.90
18721;DHT22;9489;50.948;3.114;2023-12-29T03:48:47;10.90;99.90
18721;DHT22;9489;50.948;3.114;2023-12-29T03:51:14;10.90;99.90
18721;DHT22;9489;50.948;3.114;2023-12-29T03:53:40;10.90;99.90
18721;DHT22;9489;50.948;3.114;2023-12-29T03:56:18;11.00;99.90
18721;DHT22;9489;50.948;3.114;2023-12-29T03:58:45;11.00;99.90
18721;DHT22;9489;50.948;3.114;2023-12-29T04:01:11;11.00;99.90
18721;DHT22;9489;50.948;3.114;2023-12-29T04:03:38;11.00;99.90
18721;DHT22;9489;50.948;3.114;2023-12-29T04:06:04;11.00;99.90
18721;DHT22;9489;50.948;3.114;2023-12-29T04:08:29;11.00;99.90
18721;DHT22;9489;50.948;3.114;2023-12-29T04:10:55;11.00;99.90
18721;DHT22;9489;50.948;3.114;2023-12-29T04:13:21;10.90;99.90
18721;DHT22;9489;50.948;3.114;2023-12-29T04:15:46;10.90;99.90
18721;DHT22;9489;50.948;3.114;2023-12-29T04:18:12;10.90;99.90
18721;DHT22;9489;50.948;3.114;2023-12-29T04:20:38;10.90;99.90
18721;DHT22;9489;50.948;3.114;2023-12-29T04:23:06;10.90;99.90
18721;DHT22;9489;50.948;3.114;2023-12-29T04:25:32;11.00;99.90
18721;DHT22;9489;50.948;3.114;2023-12-29T04:27:58;10.90;99.90
18721;DHT22;9489;50.948;3.114;2023-12-29T04:30:23;11.00;99.90
18721;DHT22;9489;50.948;3.114;2023-12-29T04:32:49;10.90;99.90
18721;DHT22;9489;50.948;3.114;2023-12-29T04:35:15;11.00;99.90
18721;DHT22;9489;50.948;3.114;2023-12-29T04:37:44;10.90;99.90
18721;DHT22;9489;50.948;3.114;2023-12-29T04:40:11;10.90;99.90
18721;DHT22;9489;50.948;3.114;2023-12-29T04:42:37;10.90;99.90
18721;DHT22;9489;50.948;3.114;2023-12-29T04:45:04;10.90;99.90
18721;DHT22;9489;50.948;3.114;2023-12-29T04:47:30;10.80;99.90
18721;DHT22;9489;50.948;3.114;2023-12-29T04:49:56;10.90;99.90
18721;DHT22;9489;50.948;3.114;2023-12-29T04:52:21;10.90;99.90
18721;DHT22;9489;50.948;3.114;2023-12-29T04:54:47;10.90;99.90
18721;DHT22;9489;50.948;3.114;2023-12-29T04:57:13;10.90;99.90
18721;DHT22;9489;50.948;3.114;2023-12-29T04:59:39;10.90;99.90
18721;DHT22;9489;50.948;3.114;2023-12-29T05:02:05;10.90;99.90
18721;DHT22;9489;50.948;3.114;2023-12-29T05:04:30;10.90;99.90
18721;DHT22;9489;50.948;3.114;2023-12-29T05:06:56;10.90;99.90
18721;DHT22;9489;50.948;3.114;2023-12-29T05:09:22;10.90;99.90
18721;DHT22;9489;50.948;3.114;2023-12-29T05:11:48;10.80;99.90
18721;DHT22;9489;50.948;3.114;2023-12-29T05:14:13;10.80;99.90
18721;DHT22;9489;50.948;3.114;2023-12-29T05:16:41;10.80;99.90
18721;DHT22;9489;50.948;3.114;2023-12-29T05:19:06;10.80;99.90
18721;DHT22;9489;50.948;3.114;2023-12-29T05:21:32;10.80;99.90
18721;DHT22;9489;50.948;3.114;2023-12-29T05:23:57;10.80;99.90
18721;DHT22;9489;50.948;3.114;2023-12-29T05:26:23;10.80;99.90
18721;DHT22;9489;50.948;3.114;2023-12-29T05:28:49;10.70;99.90
18721;DHT22;9489;50.948;3.114;2023-12-29T05:31:14;10.70;99.90
18721;DHT22;9489;50.948;3.114;2023-12-29T05:33:40;10.70;99.90
18721;DHT22;9489;50.948;3.114;2023-12-29T05:36:07;10.70;99.90
18721;DHT22;9489;50.948;3.114;2023-12-29T05:38:33;10.70;99.90
18721;DHT22;9489;50.948;3.114;2023-12-29T05:41:00;10.60;99.90
18721;DHT22;9489;50.948;3.114;2023-12-29T05:43:28;10.60;99.90
18721;DHT22;9489;50.948;3.114;2023-12-29T05:45:53;10.60;99.90
18721;DHT22;9489;50.948;3.114;2023-12-29T05:48:19;10.50;99.90
18721;DHT22;9489;50.948;3.114;2023-12-29T05:50:44;10.50;99.90
18721;DHT22;9489;50.948;3.114;2023-12-29T05:53:10;10.40;99.90
18721;DHT22;9489;50.948;3.114;2023-12-29T05:55:36;10.40;99.90
18721;DHT22;9489;50.948;3.114;2023-12-29T05:58:01;10.30;99.90
18721;DHT22;9489;50.948;3.114;2023-12-29T06:00:27;10.30;99.90
18721;DHT22;9489;50.948;3.114;2023-12-29T06:02:53;10.30;99.90
18721;DHT22;9489;50.948;3.114;2023-12-29T06:05:18;10.30;99.90
18721;DHT22;9489;50.948;3.114;2023-12-29T06:07:44;10.20;99.90
18721;DHT22;9489;50.948;3.114;2023-12-29T06:10:11;10.20;99.90
18721;DHT22;9489;50.948;3.114;2023-12-29T06:12:37;10.20;99.90
18721;DHT22;9489;50.948;3.114;2023-12-29T06:15:03;10.10;99.90
18721;DHT22;9489;50.948;3.114;2023-12-29T06:17:28;10.10;99.90
18721;DHT22;9489;50.948;3.114;2023-12-29T06:19:54;10.00;99.90
18721;DHT22;9489;50.948;3.114;2023-12-29T06:22:20;10.00;99.90
18721;DHT22;9489;50.948;3.114;2023-12-29T06:24:45;10.00;99.90
18721;DHT22;9489;50.948;3.114;2023-12-29T06:27:11;10.00;99.90
18721;DHT22;9489;50.948;3.114;2023-12-29T06:29:37;9.90;99.90
18721;DHT22;9489;50.948;3.114;2023-12-29T06:32:04;9.90;99.90
18721;DHT22;9489;50.948;3.114;2023-12-29T06:34:30;10.00;99.90
18721;DHT22;9489;50.948;3.114;2023-12-29T06:36:55;9.90;99.90
18721;DHT22;9489;50.948;3.114;2023-12-29T06:39:21;9.90;99.90
18721;DHT22;9489;50.948;3.114;2023-12-29T06:41:46;10.00;99.90
18721;DHT22;9489;50.948;3.114;2023-12-29T06:44:12;10.00;99.90
18721;DHT22;9489;50.948;3.114;2023-12-29T06:46:38;10.00;99.90
18721;DHT22;9489;50.948;3.114;2023-12-29T06:49:04;9.90;99.90
18721;DHT22;9489;50.948;3.114;2023-12-29T06:51:30;9.90;99.90
18721;DHT22;9489;50.948;3.114;2023-12-29T06:53:55;9.90;99.90
18721;DHT22;9489;50.948;3.114;2023-12-29T06:56:21;10.00;99.90
18721;DHT22;9489;50.948;3.114;2023-12-29T06:58:47;10.00;99.90
18721;DHT22;9489;50.948;3.114;2023-12-29T07:01:13;10.00;99.90
18721;DHT22;9489;50.948;3.114;2023-12-29T07:03:39;10.00;99.90
18721;DHT22;9489;50.948;3.114;2023-12-29T07:06:05;10.00;99.90
18721;DHT22;9489;50.948;3.114;2023-12-29T07:08:30;10.10;99.90
18721;DHT22;9489;50.948;3.114;2023-12-29T07:10:56;10.10;99.90
18721;DHT22;9489;50.948;3.114;2023-12-29T07:13:22;10.20;99.90
18721;DHT22;9489;50.948;3.114;2023-12-29T07:15:48;10.30;99.90
18721;DHT22;9489;50.948;3.114;2023-12-29T07:18:15;10.30;99.90
18721;DHT22;9489;50.948;3.114;2023-12-29T07:20:41;10.30;99.90
18721;DHT22;9489;50.948;3.114;2023-12-29T07:23:07;10.30;99.90
18721;DHT22;9489;50.948;3.114;2023-12-29T07:25:32;10.30;99.90
18721;DHT22;9489;50.948;3.114;2023-12-29T07:27:58;10.30;99.90
18721;DHT22;9489;50.948;3.114;2023-12-29T07:30:24;10.30;99.90
18721;DHT22;9489;50.948;3.114;2023-12-29T07:32:49;10.30;99.90
18721;DHT22;9489;50.948;3.114;2023-12-29T07:35:16;10.30;99.90
18721;DHT22;9489;50.948;3.114;2023-12-29T07:37:43;10.20;99.90
18721;DHT22;9489;50.948;3.114;2023-12-29T07:40:13;10.20;99.90
18721;DHT22;9489;50.948;3.114;2023-12-29T07:42:42;10.20;99.90
18721;DHT22;9489;50.948;3.114;2023-12-29T07:45:10;10.10;99.90
18721;DHT22;9489;50.948;3.114;2023-12-29T07:47:36;10.20;99.90
18721;DHT22;9489;50.948;3.114;2023-12-29T07:50:02;10.20;99.90
18721;DHT22;9489;50.948;3.114;2023-12-29T07:52:28;10.20;99.90
18721;DHT22;9489;50.948;3.114;2023-12-29T07:54:53;10.20;99.90
18721;DHT22;9489;50.948;3.114;2023-12-29T07:57:19;10.30;99.90
18721;DHT22;9489;50.948;3.114;2023-12-29T07:59:45;10.30;99.90
18721;DHT22;9489;50.948;3.114;2023-12-29T08:02:10;10.30;99.90
18721;DHT22;9489;50.948;3.114;2023-12-29T08:04:36;10.30;99.90
18721;DHT22;9489;50.948;3.114;2023-12-29T08:07:02;10.30;99.90
18721;DHT22;9489;50.948;3.114;2023-12-29T08:09:28;10.30;99.90
18721;DHT22;9489;50.948;3.114;2023-12-29T08:11:54;10.30;99.90
18721;DHT22;9489;50.948;3.114;2023-12-29T08:14:19;10.30;99.90
18721;DHT22;9489;50.948;3.114;2023-12-29T08:16:45;10.40;99.90
18721;DHT22;9489;50.948;3.114;2023-12-29T08:19:11;10.30;99.90
18721;DHT22;9489;50.948;3.114;2023-12-29T08:21:37;10.40;99.90
18721;DHT22;9489;50.948;3.114;2023-12-29T08:24:03;10.40;99.90
18721;DHT22;9489;50.948;3.114;2023-12-29T08:26:28;10.40;99.90
18721;DHT22;9489;50.948;3.114;2023-12-29T08:28:54;10.40;99.90
18721;DHT22;9489;50.948;3.114;2023-12-29T08:31:20;10.40;99.90
18721;DHT22;9489;50.948;3.114;2023-12-29T08:33:48;10.40;99.90
18721;DHT22;9489;50.948;3.114;2023-12-29T08:36:17;10.40;99.90
18721;DHT22;9489;50.948;3.114;2023-12-29T08:38:43;10.50;99.90
18721;DHT22;9489;50.948;3.114;2023-12-29T08:41:09;10.50;99.90
18721;DHT22;9489;50.948;3.114;2023-12-29T08:43:35;10.50;99.90
18721;DHT22;9489;50.948;3.114;2023-12-29T08:46:02;10.60;99.90
18721;DHT22;9489;50.948;3.114;2023-12-29T08:48:27;10.60;99.90
18721;DHT22;9489;50.948;3.114;2023-12-29T08:50:53;10.60;99.90
18721;DHT22;9489;50.948;3.114;2023-12-29T08:53:19;10.60;99.90
18721;DHT22;9489;50.948;3.114;2023-12-29T08:55:45;10.50;99.90
18721;DHT22;9489;50.948;3.114;2023-12-29T08:58:11;10.50;99.90
18721;DHT22;9489;50.948;3.114;2023-12-29T09:00:37;10.60;99.90
18721;DHT22;9489;50.948;3.114;2023-12-29T09:03:03;10.50;99.90
18721;DHT22;9489;50.948;3.114;2023-12-29T09:05:28;10.60;99.90
18721;DHT22;9489;50.948;3.114;2023-12-29T09:07:54;10.60;99.90
18721;DHT22;9489;50.948;3.114;2023-12-29T09:10:20;10.60;99.90
18721;DHT22;9489;50.948;3.114;2023-12-29T09:12:46;10.60;99.90
18721;DHT22;9489;50.948;3.114;2023-12-29T09:15:12;10.70;99.90
18721;DHT22;9489;50.948;3.114;2023-12-29T09:17:38;10.70;99.90
18721;DHT22;9489;50.948;3.114;2023-12-29T09:20:04;10.80;99.90
18721;DHT22;9489;50.948;3.114;2023-12-29T09:22:29;10.80;99.90
18721;DHT22;9489;50.948;3.114;2023-12-29T09:24:55;10.80;99.90
18721;DHT22;9489;50.948;3.114;2023-12-29T09:27:21;11.00;99.90
18721;DHT22;9489;50.948;3.114;2023-12-29T09:29:47;11.00;99.90
18721;DHT22;9489;50.948;3.114;2023-12-29T09:32:13;11.10;99.90
18721;DHT22;9489;50.948;3.114;2023-12-29T09:34:38;11.40;99.90
18721;DHT22;9489;50.948;3.114;2023-12-29T09:37:04;11.70;99.90
18721;DHT22;9489;50.948;3.114;2023-12-29T09:39:30;11.90;99.90
18721;DHT22;9489;50.948;3.114;2023-12-29T09:41:58;12.20;99.90
18721;DHT22;9489;50.948;3.114;2023-12-29T09:44:28;12.60;99.90
18721;DHT22;9489;50.948;3.114;2023-12-29T09:46:54;12.60;99.90
18721;DHT22;9489;50.948;3.114;2023-12-29T09:49:20;12.50;99.90
18721;DHT22;9489;50.948;3.114;2023-12-29T09:51:47;12.20;99.90
18721;DHT22;9489;50.948;3.114;2023-12-29T09:54:14;12.10;99.90
18721;DHT22;9489;50.948;3.114;2023-12-29T09:56:41;12.00;99.90
18721;DHT22;9489;50.948;3.114;2023-12-29T09:59:10;11.90;99.90
18721;DHT22;9489;50.948;3.114;2023-12-29T10:01:37;11.80;99.90
18721;DHT22;9489;50.948;3.114;2023-12-29T10:04:04;11.80;99.90
18721;DHT22;9489;50.948;3.114;2023-12-29T10:06:34;11.70;99.90
18721;DHT22;9489;50.948;3.114;2023-12-29T10:09:02;11.70;99.90
18721;DHT22;9489;50.948;3.114;2023-12-29T10:11:30;11.70;99.90
18721;DHT22;9489;50.948;3.114;2023-12-29T10:14:03;11.70;99.90
18721;DHT22;9489;50.948;3.114;2023-12-29T10:16:42;11.70;99.90
18721;DHT22;9489;50.948;3.114;2023-12-29T10:22:06;11.80;99.90
18721;DHT22;9489;50.948;3.114;2023-12-29T10:24:34;11.80;99.90
18721;DHT22;9489;50.948;3.114;2023-12-29T10:27:00;11.80;99.90
18721;DHT22;9489;50.948;3.114;2023-12-29T10:29:27;11.80;99.90
18721;DHT22;9489;50.948;3.114;2023-12-29T10:31:53;11.90;99.90
18721;DHT22;9489;50.948;3.114;2023-12-29T10:34:23;11.90;99.90
18721;DHT22;9489;50.948;3.114;2023-12-29T10:36:59;11.90;99.90
18721;DHT22;9489;50.948;3.114;2023-12-29T10:39:26;11.90;99.90
18721;DHT22;9489;50.948;3.114;2023-12-29T10:42:04;12.00;99.90
18721;DHT22;9489;50.948;3.114;2023-12-29T10:44:35;12.00;99.90
18721;DHT22;9489;50.948;3.114;2023-12-29T10:47:11;12.00;99.90
18721;DHT22;9489;50.948;3.114;2023-12-29T10:49:37;12.00;99.90
18721;DHT22;9489;50.948;3.114;2023-12-29T10:52:13;12.00;99.90
18721;DHT22;9489;50.948;3.114;2023-12-29T10:54:42;12.00;99.90
18721;DHT22;9489;50.948;3.114;2023-12-29T10:57:11;11.90;99.90
18721;DHT22;9489;50.948;3.114;2023-12-29T10:59:37;12.00;99.90
18721;DHT22;9489;50.948;3.114;2023-12-29T11:02:03;11.90;99.90
18721;DHT22;9489;50.948;3.114;2023-12-29T11:04:30;11.90;99.90
18721;DHT22;9489;50.948;3.114;2023-12-29T11:06:55;11.80;99.90
18721;DHT22;9489;50.948;3.114;2023-12-29T11:09:28;11.90;99.90
18721;DHT22;9489;50.948;3.114;2023-12-29T11:12:02;11.90;99.90
18721;DHT22;9489;50.948;3.114;2023-12-29T11:14:28;11.80;99.90
18721;DHT22;9489;50.948;3.114;2023-12-29T11:16:55;11.80;99.90
18721;DHT22;9489;50.948;3.114;2023-12-29T11:19:21;11.90;99.90
18721;DHT22;9489;50.948;3.114;2023-12-29T11:21:49;11.80;99.90
18721;DHT22;9489;50.948;3.114;2023-12-29T11:24:17;11.80;99.90
18721;DHT22;9489;50.948;3.114;2023-12-29T11:26:43;11.70;99.90
18721;DHT22;9489;50.948;3.114;2023-12-29T11:29:11;11.80;99.90
18721;DHT22;9489;50.948;3.114;2023-12-29T11:31:38;11.70;99.90
18721;DHT22;9489;50.948;3.114;2023-12-29T11:34:12;11.70;99.90
18721;DHT22;9489;50.948;3.114;2023-12-29T11:36:45;11.70;99.90
18721;DHT22;9489;50.948;3.114;2023-12-29T11:42:03;11.70;99.90
18721;DHT22;9489;50.948;3.114;2023-12-29T11:44:30;11.80;99.90
18721;DHT22;9489;50.948;3.114;2023-12-29T11:46:59;11.80;99.90
18721;DHT22;9489;50.948;3.114;2023-12-29T11:49:25;11.70;99.90
18721;DHT22;9489;50.948;3.114;2023-12-29T11:51:52;11.70;99.90
18721;DHT22;9489;50.948;3.114;2023-12-29T11:54:25;11.70;99.90
18721;DHT22;9489;50.948;3.114;2023-12-29T11:56:55;11.70;99.90
18721;DHT22;9489;50.948;3.114;2023-12-29T11:59:25;11.70;99.90
18721;DHT22;9489;50.948;3.114;2023-12-29T12:01:58;11.70;99.90
18721;DHT22;9489;50.948;3.114;2023-12-29T12:04:41;11.70;99.90
18721;DHT22;9489;50.948;3.114;2023-12-29T12:12:56;11.60;99.90
18721;DHT22;9489;50.948;3.114;2023-12-29T12:17:59;11.60;99.90
18721;DHT22;9489;50.948;3.114;2023-12-29T12:20:26;11.60;99.90
18721;DHT22;9489;50.948;3.114;2023-12-29T12:23:01;11.70;99.90
18721;DHT22;9489;50.948;3.114;2023-12-29T12:25:27;11.70;99.90
18721;DHT22;9489;50.948;3.114;2023-12-29T12:27:53;11.70;99.90
18721;DHT22;9489;50.948;3.114;2023-12-29T12:30:20;11.70;99.90
18721;DHT22;9489;50.948;3.114;2023-12-29T12:32:47;11.70;99.90
18721;DHT22;9489;50.948;3.114;2023-12-29T12:35:22;11.80;99.90
18721;DHT22;9489;50.948;3.114;2023-12-29T12:37:47;11.90;99.90
18721;DHT22;9489;50.948;3.114;2023-12-29T12:40:25;12.10;99.90
18721;DHT22;9489;50.948;3.114;2023-12-29T12:42:51;12.30;99.90
18721;DHT22;9489;50.948;3.114;2023-12-29T12:45:20;12.30;99.90
18721;DHT22;9489;50.948;3.114;2023-12-29T12:47:54;12.40;99.90
18721;DHT22;9489;50.948;3.114;2023-12-29T12:50:20;12.40;99.90
18721;DHT22;9489;50.948;3.114;2023-12-29T12:52:46;12.40;99.90
18721;DHT22;9489;50.948;3.114;2023-12-29T12:55:12;12.40;99.90
18721;DHT22;9489;50.948;3.114;2023-12-29T12:57:39;12.40;99.90
18721;DHT22;9489;50.948;3.114;2023-12-29T13:00:06;12.40;99.90
18721;DHT22;9489;50.948;3.114;2023-12-29T13:02:34;12.30;99.90
18721;DHT22;9489;50.948;3.114;2023-12-29T13:05:01;12.30;99.90
18721;DHT22;9489;50.948;3.114;2023-12-29T13:07:30;12.20;99.90
18721;DHT22;9489;50.948;3.114;2023-12-29T13:09:57;12.20;99.90
18721;DHT22;9489;50.948;3.114;2023-12-29T13:12:23;12.20;99.90
18721;DHT22;9489;50.948;3.114;2023-12-29T13:14:49;12.20;99.90
18721;DHT22;9489;50.948;3.114;2023-12-29T13:17:17;12.20;99.90
18721;DHT22;9489;50.948;3.114;2023-12-29T13:19:43;12.20;99.90
18721;DHT22;9489;50.948;3.114;2023-12-29T13:22:11;12.20;99.90
18721;DHT22;9489;50.948;3.114;2023-12-29T13:24:45;12.10;99.90
18721;DHT22;9489;50.948;3.114;2023-12-29T13:27:11;12.10;99.90
18721;DHT22;9489;50.948;3.114;2023-12-29T13:29:38;12.10;99.90
18721;DHT22;9489;50.948;3.114;2023-12-29T13:40:17;11.90;99.90
18721;DHT22;9489;50.948;3.114;2023-12-29T13:42:48;11.80;99.90
18721;DHT22;9489;50.948;3.114;2023-12-29T13:45:17;11.90;99.90
18721;DHT22;9489;50.948;3.114;2023-12-29T13:47:45;11.80;99.90
18721;DHT22;9489;50.948;3.114;2023-12-29T13:50:11;11.90;99.90
18721;DHT22;9489;50.948;3.114;2023-12-29T13:52:37;11.90;99.90
18721;DHT22;9489;50.948;3.114;2023-12-29T13:55:04;11.90;99.90
18721;DHT22;9489;50.948;3.114;2023-12-29T13:57:35;12.00;99.90
18721;DHT22;9489;50.948;3.114;2023-12-29T14:00:25;12.00;99.90
18721;DHT22;9489;50.948;3.114;2023-12-29T14:07:55;12.30;99.90
18721;DHT22;9489;50.948;3.114;2023-12-29T14:10:32;12.40;99.90
18721;DHT22;9489;50.948;3.114;2023-12-29T14:13:08;12.40;99.90
18721;DHT22;9489;50.948;3.114;2023-12-29T14:15:38;12.30;99.90
18721;DHT22;9489;50.948;3.114;2023-12-29T14:20:46;12.20;99.90
18721;DHT22;9489;50.948;3.114;2023-12-29T14:23:13;12.10;99.90
18721;DHT22;9489;50.948;3.114;2023-12-29T14:25:39;12.20;99.90
18721;DHT22;9489;50.948;3.114;2023-12-29T14:28:15;12.20;99.90
18721;DHT22;9489;50.948;3.114;2023-12-29T14:30:41;12.30;99.90
18721;DHT22;9489;50.948;3.114;2023-12-29T14:33:07;12.20;99.90
18721;DHT22;9489;50.948;3.114;2023-12-29T14:35:33;12.20;99.90
18721;DHT22;9489;50.948;3.114;2023-12-29T14:37:59;12.20;99.90
18721;DHT22;9489;50.948;3.114;2023-12-29T14:40:25;12.20;99.90
18721;DHT22;9489;50.948;3.114;2023-12-29T14:42:50;12.20;99.90
18721;DHT22;9489;50.948;3.114;2023-12-29T14:45:16;12.10;99.90
18721;DHT22;9489;50.948;3.114;2023-12-29T14:47:41;12.10;99.90
18721;DHT22;9489;50.948;3.114;2023-12-29T14:50:08;12.10;99.90
18721;DHT22;9489;50.948;3.114;2023-12-29T14:52:33;12.00;99.90
18721;DHT22;9489;50.948;3.114;2023-12-29T14:54:59;12.00;99.90
18721;DHT22;9489;50.948;3.114;2023-12-29T14:57:25;11.90;99.90
18721;DHT22;9489;50.948;3.114;2023-12-29T14:59:50;11.80;99.90
18721;DHT22;9489;50.948;3.114;2023-12-29T15:02:16;11.80;99.90
18721;DHT22;9489;50.948;3.114;2023-12-29T15:04:42;11.70;99.90
18721;DHT22;9489;50.948;3.114;2023-12-29T15:07:08;11.70;99.90
18721;DHT22;9489;50.948;3.114;2023-12-29T15:09:34;11.70;99.90
18721;DHT22;9489;50.948;3.114;2023-12-29T15:12:01;11.70;99.90
18721;DHT22;9489;50.948;3.114;2023-12-29T15:14:27;11.70;99.90
18721;DHT22;9489;50.948;3.114;2023-12-29T15:16:53;11.70;99.90
18721;DHT22;9489;50.948;3.114;2023-12-29T15:19:19;11.70;99.90
18721;DHT22;9489;50.948;3.114;2023-12-29T15:21:45;11.70;99.90
18721;DHT22;9489;50.948;3.114;2023-12-29T15:24:10;11.60;99.90
18721;DHT22;9489;50.948;3.114;2023-12-29T15:26:36;11.60;99.90
18721;DHT22;9489;50.948;3.114;2023-12-29T15:29:02;11.60;99.90
18721;DHT22;9489;50.948;3.114;2023-12-29T15:31:28;11.70;99.90
18721;DHT22;9489;50.948;3.114;2023-12-29T15:33:54;11.70;99.90
18721;DHT22;9489;50.948;3.114;2023-12-29T15:36:19;11.70;99.90
18721;DHT22;9489;50.948;3.114;2023-12-29T15:38:50;11.70;99.90
18721;DHT22;9489;50.948;3.114;2023-12-29T15:41:15;11.60;99.90
18721;DHT22;9489;50.948;3.114;2023-12-29T15:43:41;11.60;99.90
18721;DHT22;9489;50.948;3.114;2023-12-29T15:46:18;11.60;99.90
18721;DHT22;9489;50.948;3.114;2023-12-29T15:48:44;11.60;99.90
18721;DHT22;9489;50.948;3.114;2023-12-29T15:51:10;11.60;99.90
18721;DHT22;9489;50.948;3.114;2023-12-29T15:53:36;11.60;99.90
18721;DHT22;9489;50.948;3.114;2023-12-29T15:56:02;11.60;99.90
18721;DHT22;9489;50.948;3.114;2023-12-29T15:58:29;11.60;99.90
18721;DHT22;9489;50.948;3.114;2023-12-29T16:00:55;11.60;99.90
18721;DHT22;9489;50.948;3.114;2023-12-29T16:03:21;11.60;99.90
18721;DHT22;9489;50.948;3.114;2023-12-29T16:05:46;11.50;99.90
18721;DHT22;9489;50.948;3.114;2023-12-29T16:08:12;11.60;99.90
18721;DHT22;9489;50.948;3.114;2023-12-29T16:10:38;11.50;99.90
18721;DHT22;9489;50.948;3.114;2023-12-29T16:13:04;11.50;99.90
18721;DHT22;9489;50.948;3.114;2023-12-29T16:15:29;11.50;99.90
18721;DHT22;9489;50.948;3.114;2023-12-29T16:17:56;11.50;99.90